sensor_id;sensor_type;location;lat;lon;timestamp;temperature;humidity
18884;DHT22;9574;47.282;9.640;2023-03-24T00:00:33;13.00;99.90
18884;DHT22;9574;47.282;9.640;2023-03-24T00:03:00;12.90;99.90
18884;DHT22;9574;47.282;9.640;2023-03-24T00:05:27;12.80;99.90
18884;DHT22;9574;47.282;9.640;2023-03-24T00:07:57;12.70;99.90
18884;DHT22;9574;47.282;9.640;2023-03-24T00:10:27;12.70;99.90
18884;DHT22;9574;47.282;9.640;2023-03-24T00:12:59;12.70;99.90
18884;DHT22;9574;47.282;9.640;2023-03-24T00:15:27;12.70;99.90
18884;DHT22;9574;47.282;9.640;2023-03-24T00:17:54;12.70;99.90
18884;DHT22;9574;47.282;9.640;2023-03-24T00:20:23;12.70;99.90
18884;DHT22;9574;47.282;9.640;2023-03-24T00:22:52;12.70;99.90
18884;DHT22;9574;47.282;9.640;2023-03-24T00:25:25;12.70;99.90
18884;DHT22;9574;47.282;9.640;2023-03-24T00:27:54;12.80;99.90
18884;DHT22;9574;47.282;9.640;2023-03-24T00:30:22;12.80;99.90
18884;DHT22;9574;47.282;9.640;2023-03-24T00:32:49;12.80;99.90
18884;DHT22;9574;47.282;9.640;2023-03-24T00:35:17;12.90;99.90
18884;DHT22;9574;47.282;9.640;2023-03-24T00:37:44;12.90;99.90
18884;DHT22;9574;47.282;9.640;2023-03-24T00:40:13;13.00;99.90
18884;DHT22;9574;47.282;9.640;2023-03-24T00:42:45;13.00;99.90
18884;DHT22;9574;47.282;9.640;2023-03-24T00:45:14;13.00;99.90
18884;DHT22;9574;47.282;9.640;2023-03-24T00:47:43;13.10;99.90
18884;DHT22;9574;47.282;9.640;2023-03-24T00:50:14;13.20;99.90
18884;DHT22;9574;47.282;9.640;2023-03-24T00:52:42;13.30;99.90
18884;DHT22;9574;47.282;9.640;2023-03-24T00:55:13;13.30;99.90
18884;DHT22;9574;47.282;9.640;2023-03-24T00:57:43;13.30;99.90
18884;DHT22;9574;47.282;9.640;2023-03-24T01:00:16;13.20;99.90
18884;DHT22;9574;47.282;9.640;2023-03-24T01:02:46;13.20;99.90
18884;DHT22;9574;47.282;9.640;2023-03-24T01:05:13;13.30;99.90
18884;DHT22;9574;47.282;9.640;2023-03-24T01:07:42;13.30;99.90
18884;DHT22;9574;47.282;9.640;2023-03-24T01:10:12;13.20;99.90
18884;DHT22;9574;47.282;9.640;2023-03-24T01:12:39;13.20;99.90
18884;DHT22;9574;47.282;9.640;2023-03-24T01:15:13;13.20;99.90
18884;DHT22;9574;47.282;9.640;2023-03-24T01:17:40;13.20;99.90
18884;DHT22;9574;47.282;9.640;2023-03-24T01:20:09;13.30;99.90
18884;DHT22;9574;47.282;9.640;2023-03-24T01:22:38;13.30;99.90
18884;DHT22;9574;47.282;9.640;2023-03-24T01:25:06;13.30;99.90
18884;DHT22;9574;47.282;9.640;2023-03-24T01:27:34;13.30;99.90
18884;DHT22;9574;47.282;9.640;2023-03-24T01:30:02;13.30;99.90
18884;DHT22;9574;47.282;9.640;2023-03-24T01:32:31;13.30;99.90
18884;DHT22;9574;47.282;9.640;2023-03-24T01:34:58;13.30;99.90
18884;DHT22;9574;47.282;9.640;2023-03-24T01:37:25;13.30;99.90
18884;DHT22;9574;47.282;9.640;2023-03-24T01:39:53;13.30;99.90
18884;DHT22;9574;47.282;9.640;2023-03-24T01:42:21;13.30;99.90
18884;DHT22;9574;47.282;9.640;2023-03-24T01:44:50;13.30;99.90
18884;DHT22;9574;47.282;9.640;2023-03-24T01:47:19;13.30;99.90
18884;DHT22;9574;47.282;9.640;2023-03-24T01:49:51;13.40;99.90
18884;DHT22;9574;47.282;9.640;2023-03-24T01:52:23;13.60;99.90
18884;DHT22;9574;47.282;9.640;2023-03-24T01:54:53;13.80;99.90
18884;DHT22;9574;47.282;9.640;2023-03-24T01:57:24;14.00;99.90
18884;DHT22;9574;47.282;9.640;2023-03-24T01:59:54;14.00;99.90
18884;DHT22;9574;47.282;9.640;2023-03-24T02:02:23;13.80;99.90
18884;DHT22;9574;47.282;9.640;2023-03-24T02:04:54;13.60;99.90
18884;DHT22;9574;47.282;9.640;2023-03-24T02:07:30;13.50;99.90
18884;DHT22;9574;47.282;9.640;2023-03-24T02:09:58;13.50;99.90
18884;DHT22;9574;47.282;9.640;2023-03-24T02:12:25;13.60;99.90
18884;DHT22;9574;47.282;9.640;2023-03-24T02:14:52;13.70;99.90
18884;DHT22;9574;47.282;9.640;2023-03-24T02:17:43;13.80;99.90
18884;DHT22;9574;47.282;9.640;2023-03-24T02:24:00;13.90;99.90
18884;DHT22;9574;47.282;9.640;2023-03-24T02:26:45;13.80;99.90
18884;DHT22;9574;47.282;9.640;2023-03-24T02:33:04;13.60;99.90
18884;DHT22;9574;47.282;9.640;2023-03-24T02:36:00;13.60;99.90
18884;DHT22;9574;47.282;9.640;2023-03-24T02:41:42;13.50;99.90
18884;DHT22;9574;47.282;9.640;2023-03-24T02:44:17;13.50;99.90
18884;DHT22;9574;47.282;9.640;2023-03-24T02:46:49;13.30;99.90
18884;DHT22;9574;47.282;9.640;2023-03-24T02:49:25;13.30;99.90
18884;DHT22;9574;47.282;9.640;2023-03-24T02:51:58;13.30;99.90
18884;DHT22;9574;47.282;9.640;2023-03-24T02:54:33;13.30;99.90
18884;DHT22;9574;47.282;9.640;2023-03-24T02:57:08;13.30;99.90
18884;DHT22;9574;47.282;9.640;2023-03-24T02:59:40;13.20;99.90
18884;DHT22;9574;47.282;9.640;2023-03-24T03:02:13;13.20;99.90
18884;DHT22;9574;47.282;9.640;2023-03-24T03:04:43;13.10;99.90
18884;DHT22;9574;47.282;9.640;2023-03-24T03:07:16;13.20;99.90
18884;DHT22;9574;47.282;9.640;2023-03-24T03:09:49;13.30;99.90
18884;DHT22;9574;47.282;9.640;2023-03-24T03:12:20;13.30;99.90
18884;DHT22;9574;47.282;9.640;2023-03-24T03:14:53;13.30;99.90
18884;DHT22;9574;47.282;9.640;2023-03-24T03:17:24;13.30;99.90
18884;DHT22;9574;47.282;9.640;2023-03-24T03:19:54;13.30;99.90
18884;DHT22;9574;47.282;9.640;2023-03-24T03:22:24;13.30;99.90
18884;DHT22;9574;47.282;9.640;2023-03-24T03:24:55;13.30;99.90
18884;DHT22;9574;47.282;9.640;2023-03-24T03:27:27;13.30;99.90
18884;DHT22;9574;47.282;9.640;2023-03-24T03:29:58;13.20;99.90
18884;DHT22;9574;47.282;9.640;2023-03-24T03:32:29;13.20;99.90
18884;DHT22;9574;47.282;9.640;2023-03-24T03:35:00;13.20;99.90
18884;DHT22;9574;47.282;9.640;2023-03-24T03:37:35;13.20;99.90
18884;DHT22;9574;47.282;9.640;2023-03-24T03:40:08;13.10;99.90
18884;DHT22;9574;47.282;9.640;2023-03-24T03:42:39;13.00;99.90
18884;DHT22;9574;47.282;9.640;2023-03-24T03:45:07;13.00;99.90
18884;DHT22;9574;47.282;9.640;2023-03-24T03:47:35;13.00;99.90
18884;DHT22;9574;47.282;9.640;2023-03-24T03:50:03;13.00;99.90
18884;DHT22;9574;47.282;9.640;2023-03-24T03:52:31;13.10;99.90
18884;DHT22;9574;47.282;9.640;2023-03-24T03:54:58;13.20;99.90
18884;DHT22;9574;47.282;9.640;2023-03-24T03:57:26;13.20;99.90
18884;DHT22;9574;47.282;9.640;2023-03-24T03:59:54;13.10;99.90
18884;DHT22;9574;47.282;9.640;2023-03-24T04:02:32;13.20;99.90
18884;DHT22;9574;47.282;9.640;2023-03-24T04:05:15;13.20;99.90
18884;DHT22;9574;47.282;9.640;2023-03-24T04:11:04;13.40;99.90
18884;DHT22;9574;47.282;9.640;2023-03-24T04:13:38;13.50;99.90
18884;DHT22;9574;47.282;9.640;2023-03-24T04:16:12;13.60;99.90
18884;DHT22;9574;47.282;9.640;2023-03-24T04:19:07;13.60;99.90
18884;DHT22;9574;47.282;9.640;2023-03-24T04:21:47;13.50;99.90
18884;DHT22;9574;47.282;9.640;2023-03-24T04:24:27;13.50;99.90
18884;DHT22;9574;47.282;9.640;2023-03-24T04:27:04;13.70;99.90
18884;DHT22;9574;47.282;9.640;2023-03-24T04:29:39;13.70;99.90
18884;DHT22;9574;47.282;9.640;2023-03-24T04:32:16;13.70;99.90
18884;DHT22;9574;47.282;9.640;2023-03-24T04:34:49;13.80;99.90
18884;DHT22;9574;47.282;9.640;2023-03-24T04:37:21;13.70;99.90
18884;DHT22;9574;47.282;9.640;2023-03-24T04:39:51;13.70;99.90
18884;DHT22;9574;47.282;9.640;2023-03-24T04:42:25;13.60;99.90
18884;DHT22;9574;47.282;9.640;2023-03-24T04:44:55;13.50;99.90
18884;DHT22;9574;47.282;9.640;2023-03-24T04:47:26;13.60;99.90
18884;DHT22;9574;47.282;9.640;2023-03-24T04:50:00;13.80;99.90
18884;DHT22;9574;47.282;9.640;2023-03-24T04:52:27;13.90;99.90
18884;DHT22;9574;47.282;9.640;2023-03-24T04:54:54;13.80;99.90
18884;DHT22;9574;47.282;9.640;2023-03-24T04:57:21;13.80;99.90
18884;DHT22;9574;47.282;9.640;2023-03-24T04:59:48;13.70;99.90
18884;DHT22;9574;47.282;9.640;2023-03-24T05:02:15;13.60;99.90
18884;DHT22;9574;47.282;9.640;2023-03-24T05:04:43;13.60;99.90
18884;DHT22;9574;47.282;9.640;2023-03-24T05:07:10;13.50;99.90
18884;DHT22;9574;47.282;9.640;2023-03-24T05:09:40;13.40;99.90
18884;DHT22;9574;47.282;9.640;2023-03-24T05:12:07;13.40;99.90
18884;DHT22;9574;47.282;9.640;2023-03-24T05:14:34;13.40;99.90
18884;DHT22;9574;47.282;9.640;2023-03-24T05:17:01;13.30;99.90
18884;DHT22;9574;47.282;9.640;2023-03-24T05:19:27;13.30;99.90
18884;DHT22;9574;47.282;9.640;2023-03-24T05:21:56;13.40;99.90
18884;DHT22;9574;47.282;9.640;2023-03-24T05:24:23;13.40;99.90
18884;DHT22;9574;47.282;9.640;2023-03-24T05:26:51;13.40;99.90
18884;DHT22;9574;47.282;9.640;2023-03-24T05:29:18;13.40;99.90
18884;DHT22;9574;47.282;9.640;2023-03-24T05:31:45;13.40;99.90
18884;DHT22;9574;47.282;9.640;2023-03-24T05:34:12;13.40;99.90
18884;DHT22;9574;47.282;9.640;2023-03-24T05:36:39;13.40;99.90
18884;DHT22;9574;47.282;9.640;2023-03-24T05:39:07;13.30;99.90
18884;DHT22;9574;47.282;9.640;2023-03-24T05:41:34;13.30;99.90
18884;DHT22;9574;47.282;9.640;2023-03-24T05:44:01;13.30;99.90
18884;DHT22;9574;47.282;9.640;2023-03-24T05:46:28;13.20;99.90
18884;DHT22;9574;47.282;9.640;2023-03-24T05:48:55;13.20;99.90
18884;DHT22;9574;47.282;9.640;2023-03-24T05:51:22;13.20;99.90
18884;DHT22;9574;47.282;9.640;2023-03-24T05:53:49;13.20;99.90
18884;DHT22;9574;47.282;9.640;2023-03-24T05:56:18;13.20;99.90
18884;DHT22;9574;47.282;9.640;2023-03-24T05:58:45;13.20;99.90
18884;DHT22;9574;47.282;9.640;2023-03-24T06:01:12;13.30;99.90
18884;DHT22;9574;47.282;9.640;2023-03-24T06:03:43;13.40;99.90
18884;DHT22;9574;47.282;9.640;2023-03-24T06:06:10;13.50;99.90
18884;DHT22;9574;47.282;9.640;2023-03-24T06:08:41;13.50;99.90
18884;DHT22;9574;47.282;9.640;2023-03-24T06:11:10;13.50;99.90
18884;DHT22;9574;47.282;9.640;2023-03-24T06:13:38;13.70;99.90
18884;DHT22;9574;47.282;9.640;2023-03-24T06:16:06;13.70;99.90
18884;DHT22;9574;47.282;9.640;2023-03-24T06:18:34;13.50;99.90
18884;DHT22;9574;47.282;9.640;2023-03-24T06:21:01;13.40;99.90
18884;DHT22;9574;47.282;9.640;2023-03-24T06:23:28;13.30;99.90
18884;DHT22;9574;47.282;9.640;2023-03-24T06:25:56;13.20;99.90
18884;DHT22;9574;47.282;9.640;2023-03-24T06:28:26;13.40;99.90
18884;DHT22;9574;47.282;9.640;2023-03-24T06:30:56;13.30;99.90
18884;DHT22;9574;47.282;9.640;2023-03-24T06:33:24;13.30;99.90
18884;DHT22;9574;47.282;9.640;2023-03-24T06:35:51;13.30;99.90
18884;DHT22;9574;47.282;9.640;2023-03-24T06:38:18;13.40;99.90
18884;DHT22;9574;47.282;9.640;2023-03-24T06:40:46;13.50;99.90
18884;DHT22;9574;47.282;9.640;2023-03-24T06:43:13;13.60;99.90
18884;DHT22;9574;47.282;9.640;2023-03-24T06:45:40;13.70;99.90
18884;DHT22;9574;47.282;9.640;2023-03-24T06:48:10;13.90;99.90
18884;DHT22;9574;47.282;9.640;2023-03-24T06:50:37;14.10;99.90
18884;DHT22;9574;47.282;9.640;2023-03-24T06:53:04;14.40;99.90
18884;DHT22;9574;47.282;9.640;2023-03-24T06:55:31;14.30;99.90
18884;DHT22;9574;47.282;9.640;2023-03-24T06:57:58;14.40;99.90
18884;DHT22;9574;47.282;9.640;2023-03-24T07:00:26;14.50;99.90
18884;DHT22;9574;47.282;9.640;2023-03-24T07:02:53;14.60;99.90
18884;DHT22;9574;47.282;9.640;2023-03-24T07:05:22;14.60;99.90
18884;DHT22;9574;47.282;9.640;2023-03-24T07:07:49;14.50;99.90
18884;DHT22;9574;47.282;9.640;2023-03-24T07:10:16;14.60;99.90
18884;DHT22;9574;47.282;9.640;2023-03-24T07:12:44;14.70;99.90
18884;DHT22;9574;47.282;9.640;2023-03-24T07:15:12;14.80;99.90
18884;DHT22;9574;47.282;9.640;2023-03-24T07:17:40;14.80;99.90
18884;DHT22;9574;47.282;9.640;2023-03-24T07:20:07;14.80;99.90
18884;DHT22;9574;47.282;9.640;2023-03-24T07:22:36;14.80;99.90
18884;DHT22;9574;47.282;9.640;2023-03-24T07:25:04;14.90;99.90
18884;DHT22;9574;47.282;9.640;2023-03-24T07:27:31;15.10;99.90
18884;DHT22;9574;47.282;9.640;2023-03-24T07:29:58;15.10;99.90
18884;DHT22;9574;47.282;9.640;2023-03-24T07:32:27;15.20;99.90
18884;DHT22;9574;47.282;9.640;2023-03-24T07:34:55;15.30;99.90
18884;DHT22;9574;47.282;9.640;2023-03-24T07:37:22;15.30;99.90
18884;DHT22;9574;47.282;9.640;2023-03-24T07:39:51;15.40;99.90
18884;DHT22;9574;47.282;9.640;2023-03-24T07:42:18;15.60;99.90
18884;DHT22;9574;47.282;9.640;2023-03-24T07:44:45;15.50;99.90
18884;DHT22;9574;47.282;9.640;2023-03-24T07:47:12;15.50;99.90
18884;DHT22;9574;47.282;9.640;2023-03-24T07:49:39;15.70;99.90
18884;DHT22;9574;47.282;9.640;2023-03-24T07:52:06;15.60;99.90
18884;DHT22;9574;47.282;9.640;2023-03-24T07:54:33;15.40;99.90
18884;DHT22;9574;47.282;9.640;2023-03-24T07:57:02;15.40;99.90
18884;DHT22;9574;47.282;9.640;2023-03-24T07:59:29;15.30;99.90
18884;DHT22;9574;47.282;9.640;2023-03-24T08:01:58;15.10;99.90
18884;DHT22;9574;47.282;9.640;2023-03-24T08:04:25;15.00;99.90
18884;DHT22;9574;47.282;9.640;2023-03-24T08:06:53;14.90;99.90
18884;DHT22;9574;47.282;9.640;2023-03-24T08:09:19;14.90;99.90
18884;DHT22;9574;47.282;9.640;2023-03-24T08:11:50;15.10;99.90
18884;DHT22;9574;47.282;9.640;2023-03-24T08:14:18;15.20;99.90
18884;DHT22;9574;47.282;9.640;2023-03-24T08:16:45;15.40;99.90
18884;DHT22;9574;47.282;9.640;2023-03-24T08:19:12;15.30;99.90
18884;DHT22;9574;47.282;9.640;2023-03-24T08:21:39;15.40;99.90
18884;DHT22;9574;47.282;9.640;2023-03-24T08:24:06;15.40;99.90
18884;DHT22;9574;47.282;9.640;2023-03-24T08:26:33;15.30;99.90
18884;DHT22;9574;47.282;9.640;2023-03-24T08:29:00;15.00;99.90
18884;DHT22;9574;47.282;9.640;2023-03-24T08:31:32;14.90;99.90
18884;DHT22;9574;47.282;9.640;2023-03-24T08:33:59;14.80;99.90
18884;DHT22;9574;47.282;9.640;2023-03-24T08:36:26;14.70;99.90
18884;DHT22;9574;47.282;9.640;2023-03-24T08:38:54;14.90;99.90
18884;DHT22;9574;47.282;9.640;2023-03-24T08:41:22;15.10;99.90
18884;DHT22;9574;47.282;9.640;2023-03-24T08:43:59;15.20;99.90
18884;DHT22;9574;47.282;9.640;2023-03-24T08:46:28;15.30;99.90
18884;DHT22;9574;47.282;9.640;2023-03-24T08:48:56;15.30;99.90
18884;DHT22;9574;47.282;9.640;2023-03-24T08:51:23;15.30;99.90
18884;DHT22;9574;47.282;9.640;2023-03-24T08:53:51;15.30;99.90
18884;DHT22;9574;47.282;9.640;2023-03-24T08:56:19;15.20;99.90
18884;DHT22;9574;47.282;9.640;2023-03-24T08:58:46;15.30;99.90
18884;DHT22;9574;47.282;9.640;2023-03-24T09:01:16;15.30;99.90
18884;DHT22;9574;47.282;9.640;2023-03-24T09:03:43;15.20;99.90
18884;DHT22;9574;47.282;9.640;2023-03-24T09:06:12;15.20;99.90
18884;DHT22;9574;47.282;9.640;2023-03-24T09:08:39;15.20;99.90
18884;DHT22;9574;47.282;9.640;2023-03-24T09:11:13;15.10;99.90
18884;DHT22;9574;47.282;9.640;2023-03-24T09:13:41;15.10;99.90
18884;DHT22;9574;47.282;9.640;2023-03-24T09:16:08;14.80;99.90
18884;DHT22;9574;47.282;9.640;2023-03-24T09:18:35;14.60;99.90
18884;DHT22;9574;47.282;9.640;2023-03-24T09:21:02;14.50;99.90
18884;DHT22;9574;47.282;9.640;2023-03-24T09:23:31;14.50;99.90
18884;DHT22;9574;47.282;9.640;2023-03-24T09:25:58;14.50;99.90
18884;DHT22;9574;47.282;9.640;2023-03-24T09:28:26;14.70;99.90
18884;DHT22;9574;47.282;9.640;2023-03-24T09:30:56;14.80;99.90
18884;DHT22;9574;47.282;9.640;2023-03-24T09:33:23;15.00;99.90
18884;DHT22;9574;47.282;9.640;2023-03-24T09:35:53;15.20;99.90
18884;DHT22;9574;47.282;9.640;2023-03-24T09:38:20;15.20;99.90
18884;DHT22;9574;47.282;9.640;2023-03-24T09:40:52;15.30;99.90
18884;DHT22;9574;47.282;9.640;2023-03-24T09:43:25;15.20;99.90
18884;DHT22;9574;47.282;9.640;2023-03-24T09:45:57;15.40;99.90
18884;DHT22;9574;47.282;9.640;2023-03-24T09:48:32;15.30;99.90
18884;DHT22;9574;47.282;9.640;2023-03-24T09:51:02;15.20;99.90
18884;DHT22;9574;47.282;9.640;2023-03-24T09:53:35;15.00;99.90
18884;DHT22;9574;47.282;9.640;2023-03-24T09:56:11;14.80;99.90
18884;DHT22;9574;47.282;9.640;2023-03-24T09:58:38;14.70;99.90
18884;DHT22;9574;47.282;9.640;2023-03-24T10:01:13;14.60;99.90
18884;DHT22;9574;47.282;9.640;2023-03-24T10:03:41;14.70;99.90
18884;DHT22;9574;47.282;9.640;2023-03-24T10:06:12;14.80;99.90
18884;DHT22;9574;47.282;9.640;2023-03-24T10:08:45;15.00;99.90
18884;DHT22;9574;47.282;9.640;2023-03-24T10:11:24;15.30;99.90
18884;DHT22;9574;47.282;9.640;2023-03-24T10:14:03;15.40;99.90
18884;DHT22;9574;47.282;9.640;2023-03-24T10:16:37;15.50;99.90
18884;DHT22;9574;47.282;9.640;2023-03-24T10:19:17;15.60;99.90
18884;DHT22;9574;47.282;9.640;2023-03-24T10:21:53;15.80;99.90
18884;DHT22;9574;47.282;9.640;2023-03-24T10:24:28;15.80;99.90
18884;DHT22;9574;47.282;9.640;2023-03-24T10:27:03;15.70;99.90
18884;DHT22;9574;47.282;9.640;2023-03-24T10:29:34;15.70;99.90
18884;DHT22;9574;47.282;9.640;2023-03-24T10:32:09;15.60;99.90
18884;DHT22;9574;47.282;9.640;2023-03-24T10:34:38;15.70;99.90
18884;DHT22;9574;47.282;9.640;2023-03-24T10:37:09;15.80;99.90
18884;DHT22;9574;47.282;9.640;2023-03-24T10:39:37;16.10;99.90
18884;DHT22;9574;47.282;9.640;2023-03-24T10:42:13;16.10;99.90
18884;DHT22;9574;47.282;9.640;2023-03-24T10:44:41;16.20;99.90
18884;DHT22;9574;47.282;9.640;2023-03-24T10:47:09;16.20;99.90
18884;DHT22;9574;47.282;9.640;2023-03-24T10:49:38;16.10;99.90
18884;DHT22;9574;47.282;9.640;2023-03-24T10:52:17;16.10;99.90
18884;DHT22;9574;47.282;9.640;2023-03-24T10:54:53;16.10;99.90
18884;DHT22;9574;47.282;9.640;2023-03-24T10:57:24;16.10;99.90
18884;DHT22;9574;47.282;9.640;2023-03-24T10:59:53;16.00;99.90
18884;DHT22;9574;47.282;9.640;2023-03-24T11:02:24;16.10;99.90
18884;DHT22;9574;47.282;9.640;2023-03-24T11:04:54;16.20;99.90
18884;DHT22;9574;47.282;9.640;2023-03-24T11:07:24;16.30;99.90
18884;DHT22;9574;47.282;9.640;2023-03-24T11:09:59;16.20;99.90
18884;DHT22;9574;47.282;9.640;2023-03-24T11:12:30;16.10;99.90
18884;DHT22;9574;47.282;9.640;2023-03-24T11:15:16;16.00;99.90
18884;DHT22;9574;47.282;9.640;2023-03-24T11:17:43;15.90;99.90
18884;DHT22;9574;47.282;9.640;2023-03-24T11:20:16;15.70;99.90
18884;DHT22;9574;47.282;9.640;2023-03-24T11:22:54;15.80;99.90
18884;DHT22;9574;47.282;9.640;2023-03-24T11:25:25;15.60;99.90
18884;DHT22;9574;47.282;9.640;2023-03-24T11:27:56;15.40;99.90
18884;DHT22;9574;47.282;9.640;2023-03-24T11:30:26;15.30;99.90
18884;DHT22;9574;47.282;9.640;2023-03-24T11:32:53;15.30;99.90
18884;DHT22;9574;47.282;9.640;2023-03-24T11:35:21;15.20;99.90
18884;DHT22;9574;47.282;9.640;2023-03-24T11:37:48;15.00;99.90
18884;DHT22;9574;47.282;9.640;2023-03-24T11:40:18;14.80;99.90
18884;DHT22;9574;47.282;9.640;2023-03-24T11:42:47;14.70;99.90
18884;DHT22;9574;47.282;9.640;2023-03-24T11:45:34;14.70;99.90
18884;DHT22;9574;47.282;9.640;2023-03-24T11:48:09;14.60;99.90
18884;DHT22;9574;47.282;9.640;2023-03-24T11:50:38;14.60;99.90
18884;DHT22;9574;47.282;9.640;2023-03-24T11:53:10;14.60;99.90
18884;DHT22;9574;47.282;9.640;2023-03-24T11:55:42;14.60;99.90
18884;DHT22;9574;47.282;9.640;2023-03-24T11:58:18;14.60;99.90
18884;DHT22;9574;47.282;9.640;2023-03-24T12:00:56;14.60;99.90
18884;DHT22;9574;47.282;9.640;2023-03-24T12:03:54;14.70;99.90
18884;DHT22;9574;47.282;9.640;2023-03-24T12:06:34;15.00;99.90
18884;DHT22;9574;47.282;9.640;2023-03-24T12:09:22;15.20;99.90
18884;DHT22;9574;47.282;9.640;2023-03-24T12:12:15;15.30;99.90
18884;DHT22;9574;47.282;9.640;2023-03-24T12:14:54;15.50;99.90
18884;DHT22;9574;47.282;9.640;2023-03-24T12:17:34;15.50;99.90
18884;DHT22;9574;47.282;9.640;2023-03-24T12:20:15;15.30;99.90
18884;DHT22;9574;47.282;9.640;2023-03-24T12:22:51;15.10;99.90
18884;DHT22;9574;47.282;9.640;2023-03-24T12:25:37;14.90;99.90
18884;DHT22;9574;47.282;9.640;2023-03-24T12:28:38;14.70;99.90
18884;DHT22;9574;47.282;9.640;2023-03-24T12:31:32;14.40;99.90
18884;DHT22;9574;47.282;9.640;2023-03-24T12:34:11;14.40;99.90
18884;DHT22;9574;47.282;9.640;2023-03-24T12:36:47;14.60;99.90
18884;DHT22;9574;47.282;9.640;2023-03-24T12:39:23;14.40;99.90
18884;DHT22;9574;47.282;9.640;2023-03-24T12:42:10;14.60;99.90
18884;DHT22;9574;47.282;9.640;2023-03-24T12:44:48;14.70;99.90
18884;DHT22;9574;47.282;9.640;2023-03-24T12:47:32;14.80;99.90
18884;DHT22;9574;47.282;9.640;2023-03-24T12:50:13;14.70;99.90
18884;DHT22;9574;47.282;9.640;2023-03-24T12:55:39;14.20;99.90
18884;DHT22;9574;47.282;9.640;2023-03-24T12:58:12;14.30;99.90
18884;DHT22;9574;47.282;9.640;2023-03-24T13:00:45;14.40;99.90
18884;DHT22;9574;47.282;9.640;2023-03-24T13:03:17;14.60;99.90
18884;DHT22;9574;47.282;9.640;2023-03-24T13:05:51;14.70;99.90
18884;DHT22;9574;47.282;9.640;2023-03-24T13:08:22;14.70;99.90
18884;DHT22;9574;47.282;9.640;2023-03-24T13:10:55;14.70;99.90
18884;DHT22;9574;47.282;9.640;2023-03-24T13:13:30;14.70;99.90
18884;DHT22;9574;47.282;9.640;2023-03-24T13:16:00;14.60;99.90
18884;DHT22;9574;47.282;9.640;2023-03-24T13:18:31;14.50;99.90
18884;DHT22;9574;47.282;9.640;2023-03-24T13:21:04;14.30;99.90
18884;DHT22;9574;47.282;9.640;2023-03-24T13:23:50;14.30;99.90
18884;DHT22;9574;47.282;9.640;2023-03-24T13:26:36;14.20;99.90
18884;DHT22;9574;47.282;9.640;2023-03-24T13:29:11;14.10;99.90
18884;DHT22;9574;47.282;9.640;2023-03-24T13:31:43;14.00;99.90
18884;DHT22;9574;47.282;9.640;2023-03-24T13:34:22;13.80;99.90
18884;DHT22;9574;47.282;9.640;2023-03-24T13:36:54;13.60;99.90
18884;DHT22;9574;47.282;9.640;2023-03-24T13:39:25;13.40;99.90
18884;DHT22;9574;47.282;9.640;2023-03-24T13:41:54;13.20;99.90
18884;DHT22;9574;47.282;9.640;2023-03-24T13:44:23;13.00;99.90
18884;DHT22;9574;47.282;9.640;2023-03-24T13:47:04;12.80;99.90
18884;DHT22;9574;47.282;9.640;2023-03-24T13:49:33;12.80;99.90
18884;DHT22;9574;47.282;9.640;2023-03-24T13:52:21;12.80;99.90
18884;DHT22;9574;47.282;9.640;2023-03-24T13:54:55;12.90;99.90
18884;DHT22;9574;47.282;9.640;2023-03-24T13:57:26;12.90;99.90
18884;DHT22;9574;47.282;9.640;2023-03-24T14:00:03;12.80;99.90
18884;DHT22;9574;47.282;9.640;2023-03-24T14:02:47;12.70;99.90
18884;DHT22;9574;47.282;9.640;2023-03-24T14:05:40;12.60;99.90
18884;DHT22;9574;47.282;9.640;2023-03-24T14:08:16;12.50;99.90
18884;DHT22;9574;47.282;9.640;2023-03-24T14:10:45;12.60;99.90
18884;DHT22;9574;47.282;9.640;2023-03-24T14:13:33;12.70;99.90
18884;DHT22;9574;47.282;9.640;2023-03-24T14:16:41;12.60;99.90
18884;DHT22;9574;47.282;9.640;2023-03-24T14:19:24;12.50;99.90
18884;DHT22;9574;47.282;9.640;2023-03-24T14:21:57;12.20;99.90
18884;DHT22;9574;47.282;9.640;2023-03-24T14:24:28;12.00;99.90
18884;DHT22;9574;47.282;9.640;2023-03-24T14:26:57;11.90;99.90
18884;DHT22;9574;47.282;9.640;2023-03-24T14:29:47;12.00;99.90
18884;DHT22;9574;47.282;9.640;2023-03-24T14:32:17;12.00;99.90
18884;DHT22;9574;47.282;9.640;2023-03-24T14:34:53;12.00;99.90
18884;DHT22;9574;47.282;9.640;2023-03-24T14:37:22;12.00;99.90
18884;DHT22;9574;47.282;9.640;2023-03-24T14:39:51;12.00;99.90
18884;DHT22;9574;47.282;9.640;2023-03-24T14:42:51;11.90;99.90
18884;DHT22;9574;47.282;9.640;2023-03-24T14:45:39;11.90;99.90
18884;DHT22;9574;47.282;9.640;2023-03-24T14:48:26;11.80;99.90
18884;DHT22;9574;47.282;9.640;2023-03-24T14:50:58;11.60;99.90
18884;DHT22;9574;47.282;9.640;2023-03-24T14:53:26;11.60;99.90
18884;DHT22;9574;47.282;9.640;2023-03-24T14:55:55;11.50;99.90
18884;DHT22;9574;47.282;9.640;2023-03-24T14:58:26;11.50;99.90
18884;DHT22;9574;47.282;9.640;2023-03-24T15:00:58;11.50;99.90
18884;DHT22;9574;47.282;9.640;2023-03-24T15:03:31;11.70;99.90
18884;DHT22;9574;47.282;9.640;2023-03-24T15:08:50;11.70;99.90
18884;DHT22;9574;47.282;9.640;2023-03-24T15:11:21;11.70;99.90
18884;DHT22;9574;47.282;9.640;2023-03-24T15:13:51;11.60;99.90
18884;DHT22;9574;47.282;9.640;2023-03-24T15:16:21;11.60;99.90
18884;DHT22;9574;47.282;9.640;2023-03-24T15:18:50;11.50;99.90
18884;DHT22;9574;47.282;9.640;2023-03-24T15:21:26;11.60;99.90
18884;DHT22;9574;47.282;9.640;2023-03-24T15:23:55;11.60;99.90
18884;DHT22;9574;47.282;9.640;2023-03-24T15:26:24;11.70;99.90
18884;DHT22;9574;47.282;9.640;2023-03-24T15:28:56;11.70;99.90
18884;DHT22;9574;47.282;9.640;2023-03-24T15:31:24;11.70;99.90
18884;DHT22;9574;47.282;9.640;2023-03-24T15:34:02;11.80;99.90
18884;DHT22;9574;47.282;9.640;2023-03-24T15:36:36;11.90;99.90
18884;DHT22;9574;47.282;9.640;2023-03-24T15:39:16;12.20;99.90
18884;DHT22;9574;47.282;9.640;2023-03-24T15:41:45;12.20;99.90
18884;DHT22;9574;47.282;9.640;2023-03-24T15:44:17;12.20;99.90
18884;DHT22;9574;47.282;9.640;2023-03-24T15:46:46;12.20;99.90
18884;DHT22;9574;47.282;9.640;2023-03-24T15:49:21;12.10;99.90
18884;DHT22;9574;47.282;9.640;2023-03-24T15:51:49;12.10;99.90
18884;DHT22;9574;47.282;9.640;2023-03-24T15:54:20;12.10;99.90
18884;DHT22;9574;47.282;9.640;2023-03-24T15:57:14;12.10;99.90
18884;DHT22;9574;47.282;9.640;2023-03-24T15:59:44;12.10;99.90
18884;DHT22;9574;47.282;9.640;2023-03-24T16:02:23;12.20;99.90
18884;DHT22;9574;47.282;9.640;2023-03-24T16:04:58;12.20;99.90
18884;DHT22;9574;47.282;9.640;2023-03-24T16:07:30;12.10;99.90
18884;DHT22;9574;47.282;9.640;2023-03-24T16:09:59;12.20;99.90
18884;DHT22;9574;47.282;9.640;2023-03-24T16:12:35;12.30;99.90
18884;DHT22;9574;47.282;9.640;2023-03-24T16:15:04;12.40;99.90
18884;DHT22;9574;47.282;9.640;2023-03-24T16:17:32;12.40;99.90
18884;DHT22;9574;47.282;9.640;2023-03-24T16:19:59;12.40;99.90
18884;DHT22;9574;47.282;9.640;2023-03-24T16:22:26;12.60;99.90
18884;DHT22;9574;47.282;9.640;2023-03-24T16:24:53;12.50;99.90
18884;DHT22;9574;47.282;9.640;2023-03-24T16:27:20;12.20;99.90
18884;DHT22;9574;47.282;9.640;2023-03-24T16:29:48;12.20;99.90
18884;DHT22;9574;47.282;9.640;2023-03-24T16:32:15;12.10;99.90